sensor_id;sensor_type;location;lat;lon;timestamp;P1;durP1;ratioP1;P2;durP2;ratioP2
51792;SDS011;37850;53.178;6.376;2023-06-24T00:02:06;11.90;;;6.50;;
51792;SDS011;37850;53.178;6.376;2023-06-24T00:04:31;8.30;;;6.03;;
51792;SDS011;37850;53.178;6.376;2023-06-24T00:06:57;10.00;;;6.13;;
51792;SDS011;37850;53.178;6.376;2023-06-24T00:09:25;9.32;;;6.47;;
51792;SDS011;37850;53.178;6.376;2023-06-24T00:11:53;9.48;;;6.43;;
51792;SDS011;37850;53.178;6.376;2023-06-24T00:14:24;9.77;;;5.30;;
51792;SDS011;37850;53.178;6.376;2023-06-24T00:16:51;9.23;;;5.88;;
51792;SDS011;37850;53.178;6.376;2023-06-24T00:19:21;9.68;;;5.45;;
51792;SDS011;37850;53.178;6.376;2023-06-24T00:21:49;8.32;;;5.32;;
51792;SDS011;37850;53.178;6.376;2023-06-24T00:24:21;8.07;;;5.13;;
51792;SDS011;37850;53.178;6.376;2023-06-24T00:26:54;12.00;;;6.43;;
51792;SDS011;37850;53.178;6.376;2023-06-24T00:29:20;8.73;;;5.90;;
51792;SDS011;37850;53.178;6.376;2023-06-24T00:31:46;12.02;;;6.72;;
51792;SDS011;37850;53.178;6.376;2023-06-24T00:34:13;9.77;;;6.20;;
51792;SDS011;37850;53.178;6.376;2023-06-24T00:36:39;10.07;;;6.85;;
51792;SDS011;37850;53.178;6.376;2023-06-24T00:39:05;10.27;;;6.43;;
51792;SDS011;37850;53.178;6.376;2023-06-24T00:41:32;12.38;;;7.25;;
51792;SDS011;37850;53.178;6.376;2023-06-24T00:43:58;11.15;;;7.05;;
51792;SDS011;37850;53.178;6.376;2023-06-24T00:46:25;9.13;;;6.40;;
51792;SDS011;37850;53.178;6.376;2023-06-24T00:48:52;11.88;;;6.55;;
51792;SDS011;37850;53.178;6.376;2023-06-24T00:51:18;11.77;;;6.28;;
51792;SDS011;37850;53.178;6.376;2023-06-24T00:53:46;9.55;;;6.93;;
51792;SDS011;37850;53.178;6.376;2023-06-24T00:56:13;9.27;;;6.82;;
51792;SDS011;37850;53.178;6.376;2023-06-24T00:58:41;9.48;;;6.63;;
51792;SDS011;37850;53.178;6.376;2023-06-24T01:01:09;11.13;;;7.15;;
51792;SDS011;37850;53.178;6.376;2023-06-24T01:03:36;10.25;;;6.22;;
51792;SDS011;37850;53.178;6.376;2023-06-24T01:06:02;10.23;;;6.82;;
51792;SDS011;37850;53.178;6.376;2023-06-24T01:08:28;9.27;;;6.68;;
51792;SDS011;37850;53.178;6.376;2023-06-24T01:10:54;14.48;;;9.18;;
51792;SDS011;37850;53.178;6.376;2023-06-24T01:13:20;11.77;;;7.47;;
51792;SDS011;37850;53.178;6.376;2023-06-24T01:15:49;12.98;;;7.82;;
51792;SDS011;37850;53.178;6.376;2023-06-24T01:23:25;10.57;;;7.13;;
51792;SDS011;37850;53.178;6.376;2023-06-24T01:25:59;13.20;;;8.52;;
51792;SDS011;37850;53.178;6.376;2023-06-24T01:32:06;12.25;;;8.80;;
51792;SDS011;37850;53.178;6.376;2023-06-24T01:34:52;12.18;;;8.27;;
51792;SDS011;37850;53.178;6.376;2023-06-24T01:37:30;12.73;;;8.93;;
51792;SDS011;37850;53.178;6.376;2023-06-24T01:42:42;16.20;;;10.43;;
51792;SDS011;37850;53.178;6.376;2023-06-24T01:45:14;13.30;;;8.98;;
51792;SDS011;37850;53.178;6.376;2023-06-24T01:47:46;14.15;;;10.48;;
51792;SDS011;37850;53.178;6.376;2023-06-24T01:50:13;15.38;;;10.80;;
51792;SDS011;37850;53.178;6.376;2023-06-24T01:52:41;15.93;;;10.55;;
51792;SDS011;37850;53.178;6.376;2023-06-24T01:55:10;17.30;;;10.20;;
51792;SDS011;37850;53.178;6.376;2023-06-24T01:57:40;13.95;;;10.77;;
51792;SDS011;37850;53.178;6.376;2023-06-24T02:00:08;13.98;;;10.40;;
51792;SDS011;37850;53.178;6.376;2023-06-24T02:02:35;15.65;;;11.18;;
51792;SDS011;37850;53.178;6.376;2023-06-24T02:05:03;16.02;;;11.27;;
51792;SDS011;37850;53.178;6.376;2023-06-24T02:07:30;14.85;;;9.82;;
51792;SDS011;37850;53.178;6.376;2023-06-24T02:09:57;14.32;;;10.57;;
51792;SDS011;37850;53.178;6.376;2023-06-24T02:12:25;15.00;;;10.45;;
51792;SDS011;37850;53.178;6.376;2023-06-24T02:14:56;14.85;;;11.25;;
51792;SDS011;37850;53.178;6.376;2023-06-24T02:17:24;20.02;;;11.35;;
51792;SDS011;37850;53.178;6.376;2023-06-24T02:19:54;20.25;;;11.63;;
51792;SDS011;37850;53.178;6.376;2023-06-24T02:22:21;18.45;;;10.93;;
51792;SDS011;37850;53.178;6.376;2023-06-24T02:24:48;19.10;;;11.57;;
51792;SDS011;37850;53.178;6.376;2023-06-24T02:27:15;17.27;;;11.07;;
51792;SDS011;37850;53.178;6.376;2023-06-24T02:29:42;18.50;;;12.02;;
51792;SDS011;37850;53.178;6.376;2023-06-24T02:32:08;14.07;;;10.73;;
51792;SDS011;37850;53.178;6.376;2023-06-24T02:34:35;17.10;;;12.57;;
51792;SDS011;37850;53.178;6.376;2023-06-24T02:37:01;18.02;;;12.27;;
51792;SDS011;37850;53.178;6.376;2023-06-24T02:39:26;18.77;;;11.95;;
51792;SDS011;37850;53.178;6.376;2023-06-24T02:41:52;19.23;;;12.32;;
51792;SDS011;37850;53.178;6.376;2023-06-24T02:44:18;17.67;;;11.80;;
51792;SDS011;37850;53.178;6.376;2023-06-24T02:46:44;16.65;;;11.85;;
51792;SDS011;37850;53.178;6.376;2023-06-24T02:49:13;17.17;;;12.38;;
51792;SDS011;37850;53.178;6.376;2023-06-24T02:51:41;17.52;;;10.80;;
51792;SDS011;37850;53.178;6.376;2023-06-24T02:54:07;18.77;;;11.63;;
51792;SDS011;37850;53.178;6.376;2023-06-24T02:56:34;18.33;;;12.43;;
51792;SDS011;37850;53.178;6.376;2023-06-24T02:59:06;15.90;;;11.18;;
51792;SDS011;37850;53.178;6.376;2023-06-24T03:01:33;15.40;;;10.57;;
51792;SDS011;37850;53.178;6.376;2023-06-24T03:04:04;15.02;;;11.00;;
51792;SDS011;37850;53.178;6.376;2023-06-24T03:06:30;15.73;;;11.00;;
51792;SDS011;37850;53.178;6.376;2023-06-24T03:08:57;15.23;;;11.40;;
51792;SDS011;37850;53.178;6.376;2023-06-24T03:11:23;16.70;;;11.75;;
51792;SDS011;37850;53.178;6.376;2023-06-24T03:13:51;17.52;;;11.88;;
51792;SDS011;37850;53.178;6.376;2023-06-24T03:16:17;14.07;;;10.23;;
51792;SDS011;37850;53.178;6.376;2023-06-24T03:18:43;18.27;;;11.35;;
51792;SDS011;37850;53.178;6.376;2023-06-24T03:21:09;20.17;;;12.00;;
51792;SDS011;37850;53.178;6.376;2023-06-24T03:23:36;15.30;;;11.40;;
51792;SDS011;37850;53.178;6.376;2023-06-24T03:26:02;19.65;;;12.32;;
51792;SDS011;37850;53.178;6.376;2023-06-24T03:28:31;18.75;;;12.52;;
51792;SDS011;37850;53.178;6.376;2023-06-24T03:30:57;17.63;;;12.27;;
51792;SDS011;37850;53.178;6.376;2023-06-24T03:33:23;17.52;;;12.40;;
51792;SDS011;37850;53.178;6.376;2023-06-24T03:35:49;17.35;;;11.93;;
51792;SDS011;37850;53.178;6.376;2023-06-24T03:38:15;16.73;;;12.02;;
51792;SDS011;37850;53.178;6.376;2023-06-24T03:40:41;15.93;;;11.55;;
51792;SDS011;37850;53.178;6.376;2023-06-24T03:43:08;18.13;;;12.27;;
51792;SDS011;37850;53.178;6.376;2023-06-24T03:45:34;17.85;;;11.88;;
51792;SDS011;37850;53.178;6.376;2023-06-24T03:48:00;17.95;;;11.00;;
51792;SDS011;37850;53.178;6.376;2023-06-24T03:50:26;14.40;;;10.80;;
51792;SDS011;37850;53.178;6.376;2023-06-24T03:52:52;17.33;;;10.88;;
51792;SDS011;37850;53.178;6.376;2023-06-24T03:55:17;13.63;;;10.23;;
51792;SDS011;37850;53.178;6.376;2023-06-24T03:57:43;19.67;;;11.50;;
51792;SDS011;37850;53.178;6.376;2023-06-24T04:00:09;17.33;;;11.10;;
51792;SDS011;37850;53.178;6.376;2023-06-24T04:02:41;17.13;;;11.38;;
51792;SDS011;37850;53.178;6.376;2023-06-24T04:05:08;20.20;;;10.95;;
51792;SDS011;37850;53.178;6.376;2023-06-24T04:07:34;15.40;;;10.30;;
51792;SDS011;37850;53.178;6.376;2023-06-24T04:10:01;16.58;;;10.63;;
51792;SDS011;37850;53.178;6.376;2023-06-24T04:12:29;13.93;;;10.57;;
51792;SDS011;37850;53.178;6.376;2023-06-24T04:14:54;17.73;;;11.30;;
51792;SDS011;37850;53.178;6.376;2023-06-24T04:17:20;15.18;;;10.23;;
51792;SDS011;37850;53.178;6.376;2023-06-24T04:19:46;16.80;;;11.25;;
51792;SDS011;37850;53.178;6.376;2023-06-24T04:22:12;14.55;;;10.23;;
51792;SDS011;37850;53.178;6.376;2023-06-24T04:24:38;16.52;;;10.75;;
51792;SDS011;37850;53.178;6.376;2023-06-24T04:27:05;18.27;;;11.07;;
51792;SDS011;37850;53.178;6.376;2023-06-24T04:29:32;13.95;;;10.18;;
51792;SDS011;37850;53.178;6.376;2023-06-24T04:31:58;15.82;;;10.63;;
51792;SDS011;37850;53.178;6.376;2023-06-24T04:34:23;14.40;;;10.10;;
51792;SDS011;37850;53.178;6.376;2023-06-24T04:36:49;15.05;;;11.10;;
51792;SDS011;37850;53.178;6.376;2023-06-24T04:39:15;16.70;;;10.77;;
51792;SDS011;37850;53.178;6.376;2023-06-24T04:41:41;18.10;;;11.38;;
51792;SDS011;37850;53.178;6.376;2023-06-24T04:44:07;14.85;;;10.20;;
51792;SDS011;37850;53.178;6.376;2023-06-24T04:46:33;15.23;;;9.70;;
51792;SDS011;37850;53.178;6.376;2023-06-24T04:48:59;16.33;;;9.77;;
51792;SDS011;37850;53.178;6.376;2023-06-24T04:51:25;15.13;;;10.02;;
51792;SDS011;37850;53.178;6.376;2023-06-24T04:53:51;13.05;;;8.85;;
51792;SDS011;37850;53.178;6.376;2023-06-24T04:56:16;13.95;;;8.32;;
51792;SDS011;37850;53.178;6.376;2023-06-24T04:58:43;12.77;;;8.68;;
51792;SDS011;37850;53.178;6.376;2023-06-24T05:01:09;13.77;;;8.70;;
51792;SDS011;37850;53.178;6.376;2023-06-24T05:03:35;11.82;;;8.40;;
51792;SDS011;37850;53.178;6.376;2023-06-24T05:06:00;11.88;;;8.60;;
51792;SDS011;37850;53.178;6.376;2023-06-24T05:08:26;15.18;;;8.50;;
51792;SDS011;37850;53.178;6.376;2023-06-24T05:10:52;12.50;;;8.50;;
51792;SDS011;37850;53.178;6.376;2023-06-24T05:13:18;13.20;;;8.77;;
51792;SDS011;37850;53.178;6.376;2023-06-24T05:15:43;11.80;;;8.77;;
51792;SDS011;37850;53.178;6.376;2023-06-24T05:18:09;14.45;;;8.23;;
51792;SDS011;37850;53.178;6.376;2023-06-24T05:20:35;10.75;;;7.97;;
51792;SDS011;37850;53.178;6.376;2023-06-24T05:23:01;12.02;;;8.18;;
51792;SDS011;37850;53.178;6.376;2023-06-24T05:25:26;13.60;;;9.00;;
51792;SDS011;37850;53.178;6.376;2023-06-24T05:27:52;12.05;;;8.98;;
51792;SDS011;37850;53.178;6.376;2023-06-24T05:30:18;13.35;;;8.50;;
51792;SDS011;37850;53.178;6.376;2023-06-24T05:32:43;11.05;;;7.93;;
51792;SDS011;37850;53.178;6.376;2023-06-24T05:35:09;12.00;;;8.00;;
51792;SDS011;37850;53.178;6.376;2023-06-24T05:37:35;13.95;;;8.40;;
51792;SDS011;37850;53.178;6.376;2023-06-24T05:40:01;11.07;;;8.43;;
51792;SDS011;37850;53.178;6.376;2023-06-24T05:42:28;12.02;;;8.95;;
51792;SDS011;37850;53.178;6.376;2023-06-24T05:44:54;15.00;;;9.30;;
51792;SDS011;37850;53.178;6.376;2023-06-24T05:47:19;15.45;;;8.88;;
51792;SDS011;37850;53.178;6.376;2023-06-24T05:49:45;12.95;;;8.68;;
51792;SDS011;37850;53.178;6.376;2023-06-24T05:52:14;14.68;;;8.73;;
51792;SDS011;37850;53.178;6.376;2023-06-24T05:54:39;14.13;;;9.00;;
51792;SDS011;37850;53.178;6.376;2023-06-24T05:57:05;12.02;;;8.93;;
51792;SDS011;37850;53.178;6.376;2023-06-24T05:59:31;14.07;;;9.20;;
51792;SDS011;37850;53.178;6.376;2023-06-24T06:01:57;13.20;;;9.15;;
51792;SDS011;37850;53.178;6.376;2023-06-24T06:04:23;17.80;;;10.20;;
51792;SDS011;37850;53.178;6.376;2023-06-24T06:06:49;13.30;;;9.20;;
51792;SDS011;37850;53.178;6.376;2023-06-24T06:09:15;12.82;;;8.50;;
51792;SDS011;37850;53.178;6.376;2023-06-24T06:11:40;12.05;;;8.05;;
51792;SDS011;37850;53.178;6.376;2023-06-24T06:14:06;12.35;;;9.10;;
51792;SDS011;37850;53.178;6.376;2023-06-24T06:16:32;13.63;;;9.45;;
51792;SDS011;37850;53.178;6.376;2023-06-24T06:18:58;15.55;;;8.50;;
51792;SDS011;37850;53.178;6.376;2023-06-24T06:21:24;12.90;;;8.50;;
51792;SDS011;37850;53.178;6.376;2023-06-24T06:23:49;13.40;;;9.50;;
51792;SDS011;37850;53.178;6.376;2023-06-24T06:26:15;14.52;;;9.35;;
51792;SDS011;37850;53.178;6.376;2023-06-24T06:28:41;14.10;;;9.10;;
51792;SDS011;37850;53.178;6.376;2023-06-24T06:31:07;13.70;;;9.40;;
51792;SDS011;37850;53.178;6.376;2023-06-24T06:33:33;13.68;;;8.93;;
51792;SDS011;37850;53.178;6.376;2023-06-24T06:35:59;16.88;;;9.30;;
51792;SDS011;37850;53.178;6.376;2023-06-24T06:38:25;15.50;;;8.90;;
51792;SDS011;37850;53.178;6.376;2023-06-24T06:40:50;14.18;;;9.25;;
51792;SDS011;37850;53.178;6.376;2023-06-24T06:43:16;16.45;;;8.73;;
51792;SDS011;37850;53.178;6.376;2023-06-24T06:45:42;10.63;;;8.13;;
51792;SDS011;37850;53.178;6.376;2023-06-24T06:48:07;12.45;;;7.57;;
51792;SDS011;37850;53.178;6.376;2023-06-24T06:50:33;12.40;;;8.38;;
51792;SDS011;37850;53.178;6.376;2023-06-24T06:53:00;13.68;;;8.07;;
51792;SDS011;37850;53.178;6.376;2023-06-24T06:55:26;12.32;;;7.78;;
51792;SDS011;37850;53.178;6.376;2023-06-24T06:57:52;10.18;;;6.82;;
51792;SDS011;37850;53.178;6.376;2023-06-24T07:00:18;11.50;;;7.55;;
51792;SDS011;37850;53.178;6.376;2023-06-24T07:02:44;11.88;;;7.45;;
51792;SDS011;37850;53.178;6.376;2023-06-24T07:05:10;9.95;;;6.57;;
51792;SDS011;37850;53.178;6.376;2023-06-24T07:07:39;10.57;;;6.45;;
51792;SDS011;37850;53.178;6.376;2023-06-24T07:10:05;10.45;;;6.40;;
51792;SDS011;37850;53.178;6.376;2023-06-24T07:12:31;10.15;;;7.22;;
51792;SDS011;37850;53.178;6.376;2023-06-24T07:14:57;9.25;;;6.20;;
51792;SDS011;37850;53.178;6.376;2023-06-24T07:17:23;9.38;;;6.40;;
51792;SDS011;37850;53.178;6.376;2023-06-24T07:19:49;9.50;;;6.43;;
51792;SDS011;37850;53.178;6.376;2023-06-24T07:22:14;11.50;;;6.22;;
51792;SDS011;37850;53.178;6.376;2023-06-24T07:24:41;10.30;;;6.78;;
51792;SDS011;37850;53.178;6.376;2023-06-24T07:27:07;10.57;;;5.93;;
51792;SDS011;37850;53.178;6.376;2023-06-24T07:29:33;9.88;;;5.50;;
51792;SDS011;37850;53.178;6.376;2023-06-24T07:31:58;13.30;;;6.18;;
51792;SDS011;37850;53.178;6.376;2023-06-24T07:34:25;9.98;;;5.88;;
51792;SDS011;37850;53.178;6.376;2023-06-24T07:36:50;7.60;;;4.75;;
51792;SDS011;37850;53.178;6.376;2023-06-24T07:39:16;9.40;;;5.13;;
51792;SDS011;37850;53.178;6.376;2023-06-24T07:41:42;11.52;;;5.03;;
51792;SDS011;37850;53.178;6.376;2023-06-24T07:44:08;9.15;;;5.63;;
51792;SDS011;37850;53.178;6.376;2023-06-24T07:46:34;8.05;;;4.45;;
51792;SDS011;37850;53.178;6.376;2023-06-24T07:49:00;9.45;;;4.82;;
51792;SDS011;37850;53.178;6.376;2023-06-24T07:51:26;8.75;;;4.95;;
51792;SDS011;37850;53.178;6.376;2023-06-24T07:53:52;7.82;;;4.78;;
51792;SDS011;37850;53.178;6.376;2023-06-24T07:56:18;9.13;;;5.30;;
51792;SDS011;37850;53.178;6.376;2023-06-24T07:58:44;12.10;;;6.22;;
51792;SDS011;37850;53.178;6.376;2023-06-24T08:01:09;8.02;;;5.03;;
51792;SDS011;37850;53.178;6.376;2023-06-24T08:03:35;9.82;;;5.30;;
51792;SDS011;37850;53.178;6.376;2023-06-24T08:06:03;9.32;;;5.13;;
51792;SDS011;37850;53.178;6.376;2023-06-24T08:08:29;9.18;;;5.13;;
51792;SDS011;37850;53.178;6.376;2023-06-24T08:10:55;11.02;;;5.50;;
51792;SDS011;37850;53.178;6.376;2023-06-24T08:13:21;8.63;;;4.57;;
51792;SDS011;37850;53.178;6.376;2023-06-24T08:15:46;9.30;;;5.18;;
51792;SDS011;37850;53.178;6.376;2023-06-24T08:18:12;11.82;;;5.75;;
51792;SDS011;37850;53.178;6.376;2023-06-24T08:20:38;9.20;;;5.53;;
51792;SDS011;37850;53.178;6.376;2023-06-24T08:23:04;8.57;;;5.32;;
51792;SDS011;37850;53.178;6.376;2023-06-24T08:25:30;8.93;;;5.15;;
51792;SDS011;37850;53.178;6.376;2023-06-24T08:27:55;11.25;;;5.35;;
51792;SDS011;37850;53.178;6.376;2023-06-24T08:30:21;10.90;;;5.07;;
51792;SDS011;37850;53.178;6.376;2023-06-24T08:32:47;9.38;;;5.32;;
51792;SDS011;37850;53.178;6.376;2023-06-24T08:35:13;8.65;;;4.88;;
51792;SDS011;37850;53.178;6.376;2023-06-24T08:37:39;8.32;;;5.30;;
51792;SDS011;37850;53.178;6.376;2023-06-24T08:40:05;10.57;;;4.75;;
51792;SDS011;37850;53.178;6.376;2023-06-24T08:42:31;10.38;;;5.03;;
51792;SDS011;37850;53.178;6.376;2023-06-24T08:44:57;9.30;;;4.78;;
51792;SDS011;37850;53.178;6.376;2023-06-24T08:47:23;9.35;;;5.15;;
51792;SDS011;37850;53.178;6.376;2023-06-24T08:49:52;11.93;;;5.65;;
51792;SDS011;37850;53.178;6.376;2023-06-24T08:52:25;8.93;;;5.07;;
51792;SDS011;37850;53.178;6.376;2023-06-24T08:54:54;8.45;;;4.88;;
51792;SDS011;37850;53.178;6.376;2023-06-24T08:57:23;8.60;;;5.38;;
51792;SDS011;37850;53.178;6.376;2023-06-24T08:59:49;8.80;;;4.85;;
51792;SDS011;37850;53.178;6.376;2023-06-24T09:02:14;9.43;;;5.45;;
51792;SDS011;37850;53.178;6.376;2023-06-24T09:04:40;9.70;;;5.53;;
51792;SDS011;37850;53.178;6.376;2023-06-24T09:07:06;8.05;;;5.38;;
51792;SDS011;37850;53.178;6.376;2023-06-24T09:09:32;9.95;;;5.57;;
51792;SDS011;37850;53.178;6.376;2023-06-24T09:11:58;8.60;;;5.03;;
51792;SDS011;37850;53.178;6.376;2023-06-24T09:14:25;8.80;;;4.80;;
51792;SDS011;37850;53.178;6.376;2023-06-24T09:19:22;9.10;;;5.47;;
51792;SDS011;37850;53.178;6.376;2023-06-24T09:21:49;8.88;;;4.75;;
51792;SDS011;37850;53.178;6.376;2023-06-24T09:24:18;9.30;;;5.60;;
51792;SDS011;37850;53.178;6.376;2023-06-24T09:26:44;8.57;;;5.15;;
51792;SDS011;37850;53.178;6.376;2023-06-24T09:29:11;9.55;;;5.15;;
51792;SDS011;37850;53.178;6.376;2023-06-24T09:31:45;13.27;;;5.05;;
51792;SDS011;37850;53.178;6.376;2023-06-24T09:34:18;8.27;;;4.60;;
51792;SDS011;37850;53.178;6.376;2023-06-24T09:36:44;13.30;;;5.55;;
51792;SDS011;37850;53.178;6.376;2023-06-24T09:39:15;11.13;;;4.43;;
51792;SDS011;37850;53.178;6.376;2023-06-24T09:41:42;10.27;;;4.30;;
51792;SDS011;37850;53.178;6.376;2023-06-24T09:44:11;10.27;;;4.93;;
51792;SDS011;37850;53.178;6.376;2023-06-24T09:46:37;8.35;;;4.57;;
51792;SDS011;37850;53.178;6.376;2023-06-24T09:49:06;9.63;;;4.32;;
51792;SDS011;37850;53.178;6.376;2023-06-24T09:51:33;9.02;;;4.45;;
51792;SDS011;37850;53.178;6.376;2023-06-24T09:54:07;10.57;;;4.32;;
51792;SDS011;37850;53.178;6.376;2023-06-24T09:56:35;9.93;;;4.20;;
51792;SDS011;37850;53.178;6.376;2023-06-24T09:59:04;8.82;;;4.38;;
51792;SDS011;37850;53.178;6.376;2023-06-24T10:01:35;8.15;;;4.47;;
51792;SDS011;37850;53.178;6.376;2023-06-24T10:04:04;8.82;;;4.38;;
51792;SDS011;37850;53.178;6.376;2023-06-24T10:06:31;7.32;;;4.22;;
51792;SDS011;37850;53.178;6.376;2023-06-24T10:08:58;8.35;;;4.53;;
51792;SDS011;37850;53.178;6.376;2023-06-24T10:11:25;7.65;;;4.50;;
51792;SDS011;37850;53.178;6.376;2023-06-24T10:13:51;10.68;;;5.40;;
51792;SDS011;37850;53.178;6.376;2023-06-24T10:16:17;10.35;;;4.68;;
51792;SDS011;37850;53.178;6.376;2023-06-24T10:18:44;8.85;;;5.25;;
51792;SDS011;37850;53.178;6.376;2023-06-24T10:21:10;9.20;;;4.32;;
51792;SDS011;37850;53.178;6.376;2023-06-24T10:26:48;7.65;;;4.28;;
51792;SDS011;37850;53.178;6.376;2023-06-24T10:37:01;8.68;;;3.80;;
51792;SDS011;37850;53.178;6.376;2023-06-24T10:47:34;9.07;;;3.70;;
51792;SDS011;37850;53.178;6.376;2023-06-24T10:50:05;8.57;;;3.55;;
51792;SDS011;37850;53.178;6.376;2023-06-24T10:52:31;8.25;;;3.92;;
51792;SDS011;37850;53.178;6.376;2023-06-24T10:54:58;6.10;;;3.50;;
51792;SDS011;37850;53.178;6.376;2023-06-24T10:57:24;8.77;;;4.03;;
51792;SDS011;37850;53.178;6.376;2023-06-24T10:59:52;6.53;;;3.60;;
51792;SDS011;37850;53.178;6.376;2023-06-24T11:02:20;8.57;;;3.50;;
51792;SDS011;37850;53.178;6.376;2023-06-24T11:04:57;10.45;;;4.00;;
51792;SDS011;37850;53.178;6.376;2023-06-24T11:07:25;8.27;;;4.10;;
51792;SDS011;37850;53.178;6.376;2023-06-24T11:09:53;7.80;;;3.75;;
51792;SDS011;37850;53.178;6.376;2023-06-24T11:12:24;8.68;;;3.80;;
51792;SDS011;37850;53.178;6.376;2023-06-24T11:14:51;7.30;;;4.03;;
51792;SDS011;37850;53.178;6.376;2023-06-24T11:17:20;9.82;;;4.18;;
51792;SDS011;37850;53.178;6.376;2023-06-24T11:19:46;9.45;;;3.47;;
51792;SDS011;37850;53.178;6.376;2023-06-24T11:22:11;6.80;;;3.38;;
51792;SDS011;37850;53.178;6.376;2023-06-24T11:24:37;6.78;;;3.30;;
51792;SDS011;37850;53.178;6.376;2023-06-24T11:27:05;9.18;;;3.40;;
51792;SDS011;37850;53.178;6.376;2023-06-24T11:29:31;11.13;;;3.47;;
51792;SDS011;37850;53.178;6.376;2023-06-24T11:31:58;6.93;;;3.70;;
51792;SDS011;37850;53.178;6.376;2023-06-24T11:34:25;7.88;;;3.83;;
51792;SDS011;37850;53.178;6.376;2023-06-24T11:36:51;11.18;;;3.63;;
51792;SDS011;37850;53.178;6.376;2023-06-24T11:39:23;7.38;;;3.38;;
51792;SDS011;37850;53.178;6.376;2023-06-24T11:41:52;7.78;;;3.63;;
51792;SDS011;37850;53.178;6.376;2023-06-24T11:44:18;7.45;;;3.50;;
51792;SDS011;37850;53.178;6.376;2023-06-24T11:46:48;7.13;;;3.40;;
51792;SDS011;37850;53.178;6.376;2023-06-24T11:49:14;9.25;;;4.10;;
51792;SDS011;37850;53.178;6.376;2023-06-24T11:51:48;6.35;;;3.55;;
51792;SDS011;37850;53.178;6.376;2023-06-24T11:54:18;8.77;;;3.40;;
51792;SDS011;37850;53.178;6.376;2023-06-24T11:56:49;7.07;;;3.50;;
51792;SDS011;37850;53.178;6.376;2023-06-24T12:01:45;10.70;;;3.75;;
51792;SDS011;37850;53.178;6.376;2023-06-24T12:04:17;9.73;;;3.83;;
51792;SDS011;37850;53.178;6.376;2023-06-24T12:06:43;7.43;;;3.60;;
51792;SDS011;37850;53.178;6.376;2023-06-24T12:09:09;6.75;;;3.40;;
51792;SDS011;37850;53.178;6.376;2023-06-24T12:11:35;6.13;;;3.17;;
51792;SDS011;37850;53.178;6.376;2023-06-24T12:14:02;7.95;;;3.60;;
51792;SDS011;37850;53.178;6.376;2023-06-24T12:16:29;7.93;;;3.25;;
51792;SDS011;37850;53.178;6.376;2023-06-24T12:18:55;6.45;;;3.35;;
51792;SDS011;37850;53.178;6.376;2023-06-24T12:21:21;6.00;;;3.42;;
51792;SDS011;37850;53.178;6.376;2023-06-24T12:23:46;7.53;;;4.07;;
51792;SDS011;37850;53.178;6.376;2023-06-24T12:26:12;7.70;;;3.30;;
51792;SDS011;37850;53.178;6.376;2023-06-24T12:28:38;7.78;;;3.63;;
51792;SDS011;37850;53.178;6.376;2023-06-24T12:31:04;6.13;;;3.22;;
51792;SDS011;37850;53.178;6.376;2023-06-24T12:33:30;7.57;;;3.55;;
51792;SDS011;37850;53.178;6.376;2023-06-24T12:35:55;9.00;;;3.13;;
51792;SDS011;37850;53.178;6.376;2023-06-24T12:38:21;8.77;;;3.83;;
51792;SDS011;37850;53.178;6.376;2023-06-24T12:40:47;9.05;;;3.92;;
51792;SDS011;37850;53.178;6.376;2023-06-24T12:43:13;8.05;;;3.17;;
51792;SDS011;37850;53.178;6.376;2023-06-24T12:45:39;8.15;;;3.50;;
51792;SDS011;37850;53.178;6.376;2023-06-24T12:48:08;7.22;;;3.17;;
51792;SDS011;37850;53.178;6.376;2023-06-24T12:50:34;11.80;;;3.80;;
51792;SDS011;37850;53.178;6.376;2023-06-24T12:53:00;8.15;;;3.78;;
51792;SDS011;37850;53.178;6.376;2023-06-24T12:55:27;6.63;;;3.50;;
51792;SDS011;37850;53.178;6.376;2023-06-24T12:57:53;5.90;;;3.13;;
51792;SDS011;37850;53.178;6.376;2023-06-24T13:00:19;7.40;;;3.55;;
51792;SDS011;37850;53.178;6.376;2023-06-24T13:02:47;6.72;;;2.80;;
51792;SDS011;37850;53.178;6.376;2023-06-24T13:05:14;6.68;;;3.28;;
51792;SDS011;37850;53.178;6.376;2023-06-24T13:07:40;5.55;;;2.92;;
51792;SDS011;37850;53.178;6.376;2023-06-24T13:10:06;7.05;;;2.83;;
51792;SDS011;37850;53.178;6.376;2023-06-24T13:12:32;5.82;;;2.90;;
51792;SDS011;37850;53.178;6.376;2023-06-24T13:14:59;5.05;;;2.70;;
51792;SDS011;37850;53.178;6.376;2023-06-24T13:17:25;5.15;;;2.60;;
51792;SDS011;37850;53.178;6.376;2023-06-24T13:19:52;5.18;;;2.50;;
51792;SDS011;37850;53.178;6.376;2023-06-24T13:22:18;6.35;;;2.47;;
51792;SDS011;37850;53.178;6.376;2023-06-24T13:24:44;4.50;;;2.22;;
51792;SDS011;37850;53.178;6.376;2023-06-24T13:27:10;5.95;;;2.47;;
51792;SDS011;37850;53.178;6.376;2023-06-24T13:29:36;6.45;;;2.25;;
51792;SDS011;37850;53.178;6.376;2023-06-24T13:32:02;5.75;;;2.15;;
51792;SDS011;37850;53.178;6.376;2023-06-24T13:34:28;6.78;;;2.53;;
51792;SDS011;37850;53.178;6.376;2023-06-24T13:36:53;8.23;;;2.80;;
51792;SDS011;37850;53.178;6.376;2023-06-24T13:39:19;6.70;;;2.35;;
51792;SDS011;37850;53.178;6.376;2023-06-24T13:41:49;8.13;;;2.90;;
51792;SDS011;37850;53.178;6.376;2023-06-24T13:44:15;5.65;;;2.88;;
51792;SDS011;37850;53.178;6.376;2023-06-24T13:46:41;5.78;;;2.53;;
51792;SDS011;37850;53.178;6.376;2023-06-24T13:49:07;6.43;;;2.40;;
51792;SDS011;37850;53.178;6.376;2023-06-24T13:51:33;5.90;;;2.40;;
51792;SDS011;37850;53.178;6.376;2023-06-24T13:53:59;8.82;;;2.75;;
51792;SDS011;37850;53.178;6.376;2023-06-24T13:56:26;4.53;;;2.10;;
51792;SDS011;37850;53.178;6.376;2023-06-24T13:58:52;5.15;;;2.30;;
51792;SDS011;37850;53.178;6.376;2023-06-24T14:01:19;5.57;;;2.28;;
51792;SDS011;37850;53.178;6.376;2023-06-24T14:03:46;5.40;;;2.50;;
51792;SDS011;37850;53.178;6.376;2023-06-24T14:06:15;5.10;;;2.33;;
51792;SDS011;37850;53.178;6.376;2023-06-24T14:08:43;6.28;;;2.70;;
51792;SDS011;37850;53.178;6.376;2023-06-24T14:11:09;4.20;;;2.10;;
51792;SDS011;37850;53.178;6.376;2023-06-24T14:13:35;4.15;;;1.80;;
51792;SDS011;37850;53.178;6.376;2023-06-24T14:16:04;3.90;;;2.10;;
51792;SDS011;37850;53.178;6.376;2023-06-24T14:18:30;5.10;;;2.00;;
51792;SDS011;37850;53.178;6.376;2023-06-24T14:20:59;4.13;;;1.80;;
51792;SDS011;37850;53.178;6.376;2023-06-24T14:23:27;4.05;;;1.85;;
51792;SDS011;37850;53.178;6.376;2023-06-24T14:25:53;6.07;;;1.80;;
51792;SDS011;37850;53.178;6.376;2023-06-24T14:28:19;5.43;;;2.13;;
51792;SDS011;37850;53.178;6.376;2023-06-24T14:30:45;4.40;;;1.90;;
51792;SDS011;37850;53.178;6.376;2023-06-24T14:33:12;5.65;;;1.90;;
51792;SDS011;37850;53.178;6.376;2023-06-24T14:35:38;4.93;;;1.98;;
51792;SDS011;37850;53.178;6.376;2023-06-24T14:38:04;6.35;;;2.70;;
51792;SDS011;37850;53.178;6.376;2023-06-24T14:40:31;4.32;;;2.08;;
51792;SDS011;37850;53.178;6.376;2023-06-24T14:42:58;4.57;;;2.13;;
51792;SDS011;37850;53.178;6.376;2023-06-24T14:45:24;6.65;;;2.70;;
51792;SDS011;37850;53.178;6.376;2023-06-24T14:47:50;5.32;;;2.17;;
51792;SDS011;37850;53.178;6.376;2023-06-24T14:50:16;7.35;;;2.30;;
51792;SDS011;37850;53.178;6.376;2023-06-24T14:52:41;5.57;;;2.20;;
51792;SDS011;37850;53.178;6.376;2023-06-24T14:55:07;5.03;;;2.53;;
51792;SDS011;37850;53.178;6.376;2023-06-24T14:57:34;5.60;;;2.50;;
51792;SDS011;37850;53.178;6.376;2023-06-24T15:00:00;5.43;;;2.30;;
51792;SDS011;37850;53.178;6.376;2023-06-24T15:02:26;5.78;;;2.13;;
51792;SDS011;37850;53.178;6.376;2023-06-24T15:04:52;4.57;;;2.22;;
51792;SDS011;37850;53.178;6.376;2023-06-24T15:07:17;6.90;;;2.83;;
51792;SDS011;37850;53.178;6.376;2023-06-24T15:09:43;6.57;;;2.70;;
51792;SDS011;37850;53.178;6.376;2023-06-24T15:12:09;5.32;;;2.58;;